Ana Sayfa
METAR-TAF:

METAR-TAF

Havaalanları :

Ibaraki, Japonya

Enlem: 36-11N, Boylam: 140-25E, yükseklik: 32 m

Güncel hava durumu gözlemi

Rapor saat 14:35 UTC de 34 dakika önce yapıldı.
Rüzgar kuzey/kuzeydoğudan 4 kt, kuzey/kuzeybatı ve doğu/kuzeydoğu arasında değişken
Sıcaklık 24°C
Nem 89%
Basınç 1008 hPa
Görüş mesafesi: 6000 m
3000 ft yükseklikte az bulutlu
18000 ft yükseklikte parçalı çok bulutlu
parçalı çok bulutlu

METAR: RJAH 251435Z 02004KT 340V060 6000 FEW030 BKN180 BKN/// 24/22 Q1008 RMK 1CU030 5AC180 A2978

Saat: 00:09 (15:09 UTC)

Tahmin

Rapor saat 11:05 UTC de 4 saat ve 4 dakika önce yapıldı.
Ayın 25'si saat 12 UTC'den ayın 26'si saat 18 UTC'ye kadar geçerli Tahmin
Rüzgar doğudan 4 kt
Görüş mesafesi 10 km veya daha fazla
3000 ft yükseklikte az bulutlu

TAF: RJAH 251105Z 2512/2618 08004KT 9999 FEW030

4.000'den fazla havaalanı için hava durumu gözlemleri ve tahminleri (METAR ve TAF raporları).

Kullanılabilir istasyonlar harita üzerinde sarı ve kırmızı noktalarla gösterilir.

İstasyonun adını görmek için fareyi noktanın üzerinde gezdirin.

Sonrasında hava gözlem ve tahminlerini görmek için tıklayın.

Haritayı değiştirmek için: yaklaştırmak için siyah artı işaretli yeşil düğmeye ve uzaklaştırmak için de eksi işaretli düğmeye hızla tıklayın; bitişik haritalar için yeşil okları kullanın.


METAR-TAF: